sensor_id;sensor_type;location;lat;lon;timestamp;temperature;humidity
9919;DHT22;4998;51.024;13.828;2023-08-21T00:00:11;27.90;90.40
9919;DHT22;4998;51.024;13.828;2023-08-21T00:02:40;27.90;90.50
9919;DHT22;4998;51.024;13.828;2023-08-21T00:05:07;27.90;90.70
9919;DHT22;4998;51.024;13.828;2023-08-21T00:07:35;27.90;90.70
9919;DHT22;4998;51.024;13.828;2023-08-21T00:10:02;27.90;90.80
9919;DHT22;4998;51.024;13.828;2023-08-21T00:12:29;27.80;91.00
9919;DHT22;4998;51.024;13.828;2023-08-21T00:14:57;27.80;91.10
9919;DHT22;4998;51.024;13.828;2023-08-21T00:17:24;27.80;91.20
9919;DHT22;4998;51.024;13.828;2023-08-21T00:19:52;27.80;91.20
9919;DHT22;4998;51.024;13.828;2023-08-21T00:22:19;27.80;91.20
9919;DHT22;4998;51.024;13.828;2023-08-21T00:24:46;27.80;91.10
9919;DHT22;4998;51.024;13.828;2023-08-21T00:27:12;27.70;90.90
9919;DHT22;4998;51.024;13.828;2023-08-21T00:29:39;27.70;90.80
9919;DHT22;4998;51.024;13.828;2023-08-21T00:32:06;27.70;90.80
9919;DHT22;4998;51.024;13.828;2023-08-21T00:34:35;27.60;90.90
9919;DHT22;4998;51.024;13.828;2023-08-21T00:37:04;27.60;91.00
9919;DHT22;4998;51.024;13.828;2023-08-21T00:39:31;27.60;91.10
9919;DHT22;4998;51.024;13.828;2023-08-21T00:41:57;27.50;91.20
9919;DHT22;4998;51.024;13.828;2023-08-21T00:44:25;27.50;91.30
9919;DHT22;4998;51.024;13.828;2023-08-21T00:46:52;27.50;91.30
9919;DHT22;4998;51.024;13.828;2023-08-21T00:49:19;27.40;91.80
9919;DHT22;4998;51.024;13.828;2023-08-21T00:51:47;27.40;91.50
9919;DHT22;4998;51.024;13.828;2023-08-21T00:54:17;27.30;91.60
9919;DHT22;4998;51.024;13.828;2023-08-21T00:56:44;27.30;91.70
9919;DHT22;4998;51.024;13.828;2023-08-21T00:59:11;27.30;91.70
9919;DHT22;4998;51.024;13.828;2023-08-21T01:01:38;27.30;91.70
9919;DHT22;4998;51.024;13.828;2023-08-21T01:04:06;27.20;91.70
9919;DHT22;4998;51.024;13.828;2023-08-21T01:06:34;27.30;91.80
9919;DHT22;4998;51.024;13.828;2023-08-21T01:09:04;27.20;91.80
9919;DHT22;4998;51.024;13.828;2023-08-21T01:11:42;27.20;92.00
9919;DHT22;4998;51.024;13.828;2023-08-21T01:14:22;27.20;92.20
9919;DHT22;4998;51.024;13.828;2023-08-21T01:16:58;27.20;92.20
9919;DHT22;4998;51.024;13.828;2023-08-21T01:19:31;27.10;92.20
9919;DHT22;4998;51.024;13.828;2023-08-21T01:21:58;27.10;92.30
9919;DHT22;4998;51.024;13.828;2023-08-21T01:24:27;27.10;92.30
9919;DHT22;4998;51.024;13.828;2023-08-21T01:26:54;27.00;92.30
9919;DHT22;4998;51.024;13.828;2023-08-21T01:29:21;27.00;92.30
9919;DHT22;4998;51.024;13.828;2023-08-21T01:31:52;27.00;92.40
9919;DHT22;4998;51.024;13.828;2023-08-21T01:34:21;26.90;92.50
9919;DHT22;4998;51.024;13.828;2023-08-21T01:36:49;26.80;92.40
9919;DHT22;4998;51.024;13.828;2023-08-21T01:39:16;26.80;92.50
9919;DHT22;4998;51.024;13.828;2023-08-21T01:41:44;26.80;92.60
9919;DHT22;4998;51.024;13.828;2023-08-21T01:44:11;26.70;92.70
9919;DHT22;4998;51.024;13.828;2023-08-21T01:46:39;26.70;92.70
9919;DHT22;4998;51.024;13.828;2023-08-21T01:49:06;26.70;92.90
9919;DHT22;4998;51.024;13.828;2023-08-21T01:51:33;26.70;93.00
9919;DHT22;4998;51.024;13.828;2023-08-21T01:54:00;26.60;93.10
9919;DHT22;4998;51.024;13.828;2023-08-21T01:56:27;26.60;93.20
9919;DHT22;4998;51.024;13.828;2023-08-21T01:58:55;26.60;93.30
9919;DHT22;4998;51.024;13.828;2023-08-21T02:01:22;26.60;93.50
9919;DHT22;4998;51.024;13.828;2023-08-21T02:03:49;26.60;93.60
9919;DHT22;4998;51.024;13.828;2023-08-21T02:06:16;26.40;93.60
9919;DHT22;4998;51.024;13.828;2023-08-21T02:08:43;26.60;93.70
9919;DHT22;4998;51.024;13.828;2023-08-21T02:11:10;26.60;93.70
9919;DHT22;4998;51.024;13.828;2023-08-21T02:13:37;26.60;93.80
9919;DHT22;4998;51.024;13.828;2023-08-21T02:16:06;26.60;93.70
9919;DHT22;4998;51.024;13.828;2023-08-21T02:18:33;26.60;93.80
9919;DHT22;4998;51.024;13.828;2023-08-21T02:21:00;26.60;93.70
9919;DHT22;4998;51.024;13.828;2023-08-21T02:23:27;26.60;93.70
9919;DHT22;4998;51.024;13.828;2023-08-21T02:25:55;26.60;93.70
9919;DHT22;4998;51.024;13.828;2023-08-21T02:28:22;26.60;93.60
9919;DHT22;4998;51.024;13.828;2023-08-21T02:30:49;26.60;93.60
9919;DHT22;4998;51.024;13.828;2023-08-21T02:33:17;26.50;93.50
9919;DHT22;4998;51.024;13.828;2023-08-21T02:35:44;26.50;93.50
9919;DHT22;4998;51.024;13.828;2023-08-21T02:38:11;26.50;93.50
9919;DHT22;4998;51.024;13.828;2023-08-21T02:40:38;26.50;93.60
9919;DHT22;4998;51.024;13.828;2023-08-21T02:43:05;26.40;93.70
9919;DHT22;4998;51.024;13.828;2023-08-21T02:45:32;26.40;93.80
9919;DHT22;4998;51.024;13.828;2023-08-21T02:47:59;26.30;93.80
9919;DHT22;4998;51.024;13.828;2023-08-21T02:50:27;26.30;94.00
9919;DHT22;4998;51.024;13.828;2023-08-21T02:52:54;26.30;94.00
9919;DHT22;4998;51.024;13.828;2023-08-21T02:55:22;26.30;94.00
9919;DHT22;4998;51.024;13.828;2023-08-21T02:57:48;26.40;94.10
9919;DHT22;4998;51.024;13.828;2023-08-21T03:00:16;26.30;94.10
9919;DHT22;4998;51.024;13.828;2023-08-21T03:02:43;26.40;94.20
9919;DHT22;4998;51.024;13.828;2023-08-21T03:05:10;26.30;94.10
9919;DHT22;4998;51.024;13.828;2023-08-21T03:07:38;26.30;94.20
9919;DHT22;4998;51.024;13.828;2023-08-21T03:10:06;26.30;94.20
9919;DHT22;4998;51.024;13.828;2023-08-21T03:12:33;26.30;94.30
9919;DHT22;4998;51.024;13.828;2023-08-21T03:15:00;26.30;94.30
9919;DHT22;4998;51.024;13.828;2023-08-21T03:17:27;26.30;94.20
9919;DHT22;4998;51.024;13.828;2023-08-21T03:19:54;26.30;94.20
9919;DHT22;4998;51.024;13.828;2023-08-21T03:22:21;26.30;94.20
9919;DHT22;4998;51.024;13.828;2023-08-21T03:24:49;26.20;94.30
9919;DHT22;4998;51.024;13.828;2023-08-21T03:27:16;26.20;94.40
9919;DHT22;4998;51.024;13.828;2023-08-21T03:29:43;26.20;94.40
9919;DHT22;4998;51.024;13.828;2023-08-21T03:32:14;26.20;94.40
9919;DHT22;4998;51.024;13.828;2023-08-21T03:34:41;26.20;94.50
9919;DHT22;4998;51.024;13.828;2023-08-21T03:37:08;26.20;94.50
9919;DHT22;4998;51.024;13.828;2023-08-21T03:39:35;26.10;95.70
9919;DHT22;4998;51.024;13.828;2023-08-21T03:42:04;26.00;95.50
9919;DHT22;4998;51.024;13.828;2023-08-21T03:44:31;26.00;95.60
9919;DHT22;4998;51.024;13.828;2023-08-21T03:46:59;26.10;95.60
9919;DHT22;4998;51.024;13.828;2023-08-21T03:49:26;26.00;95.40
9919;DHT22;4998;51.024;13.828;2023-08-21T03:51:53;26.10;95.40
9919;DHT22;4998;51.024;13.828;2023-08-21T03:54:19;26.10;95.30
9919;DHT22;4998;51.024;13.828;2023-08-21T03:56:46;26.10;95.20
9919;DHT22;4998;51.024;13.828;2023-08-21T03:59:15;26.10;95.20
9919;DHT22;4998;51.024;13.828;2023-08-21T04:01:41;26.10;95.10
9919;DHT22;4998;51.024;13.828;2023-08-21T04:04:08;26.10;95.00
9919;DHT22;4998;51.024;13.828;2023-08-21T04:06:35;26.10;95.00
9919;DHT22;4998;51.024;13.828;2023-08-21T04:09:02;26.10;95.00
9919;DHT22;4998;51.024;13.828;2023-08-21T04:11:31;26.10;95.00
9919;DHT22;4998;51.024;13.828;2023-08-21T04:13:59;26.10;95.00
9919;DHT22;4998;51.024;13.828;2023-08-21T04:16:28;26.10;95.10
9919;DHT22;4998;51.024;13.828;2023-08-21T04:18:56;26.10;95.10
9919;DHT22;4998;51.024;13.828;2023-08-21T04:21:23;26.10;95.00
9919;DHT22;4998;51.024;13.828;2023-08-21T04:23:50;26.10;95.00
9919;DHT22;4998;51.024;13.828;2023-08-21T04:26:17;26.10;95.00
9919;DHT22;4998;51.024;13.828;2023-08-21T04:28:44;26.10;95.10
9919;DHT22;4998;51.024;13.828;2023-08-21T04:31:10;26.10;95.10
9919;DHT22;4998;51.024;13.828;2023-08-21T04:33:39;26.10;95.10
9919;DHT22;4998;51.024;13.828;2023-08-21T04:36:06;26.10;95.20
9919;DHT22;4998;51.024;13.828;2023-08-21T04:38:33;26.10;95.20
9919;DHT22;4998;51.024;13.828;2023-08-21T04:41:06;26.10;95.20
9919;DHT22;4998;51.024;13.828;2023-08-21T04:43:33;26.10;95.40
9919;DHT22;4998;51.024;13.828;2023-08-21T04:46:00;26.10;95.30
9919;DHT22;4998;51.024;13.828;2023-08-21T04:48:27;26.10;95.30
9919;DHT22;4998;51.024;13.828;2023-08-21T04:50:55;26.10;95.40
9919;DHT22;4998;51.024;13.828;2023-08-21T04:53:22;26.10;95.40
9919;DHT22;4998;51.024;13.828;2023-08-21T04:55:49;26.20;95.50
9919;DHT22;4998;51.024;13.828;2023-08-21T04:58:16;26.20;95.50
9919;DHT22;4998;51.024;13.828;2023-08-21T05:00:44;26.20;95.60
9919;DHT22;4998;51.024;13.828;2023-08-21T05:03:11;26.20;95.60
9919;DHT22;4998;51.024;13.828;2023-08-21T05:05:38;26.20;95.70
9919;DHT22;4998;51.024;13.828;2023-08-21T05:08:07;26.20;95.70
9919;DHT22;4998;51.024;13.828;2023-08-21T05:10:33;26.20;95.70
9919;DHT22;4998;51.024;13.828;2023-08-21T05:13:00;26.30;95.80
9919;DHT22;4998;51.024;13.828;2023-08-21T05:15:27;26.30;95.80
9919;DHT22;4998;51.024;13.828;2023-08-21T05:17:54;26.40;95.90
9919;DHT22;4998;51.024;13.828;2023-08-21T05:20:21;26.40;96.00
9919;DHT22;4998;51.024;13.828;2023-08-21T05:22:48;26.40;96.10
9919;DHT22;4998;51.024;13.828;2023-08-21T05:25:16;26.50;96.20
9919;DHT22;4998;51.024;13.828;2023-08-21T05:27:43;26.60;96.30
9919;DHT22;4998;51.024;13.828;2023-08-21T05:30:11;26.70;96.30
9919;DHT22;4998;51.024;13.828;2023-08-21T05:32:39;26.80;96.20
9919;DHT22;4998;51.024;13.828;2023-08-21T05:35:06;27.00;96.20
9919;DHT22;4998;51.024;13.828;2023-08-21T05:37:34;27.10;96.10
9919;DHT22;4998;51.024;13.828;2023-08-21T05:40:02;27.20;96.00
9919;DHT22;4998;51.024;13.828;2023-08-21T05:42:30;27.30;95.90
9919;DHT22;4998;51.024;13.828;2023-08-21T05:44:57;27.50;95.70
9919;DHT22;4998;51.024;13.828;2023-08-21T05:47:24;27.60;95.70
9919;DHT22;4998;51.024;13.828;2023-08-21T05:49:52;27.70;95.50
9919;DHT22;4998;51.024;13.828;2023-08-21T05:52:21;27.90;95.40
9919;DHT22;4998;51.024;13.828;2023-08-21T05:54:48;28.00;95.20
9919;DHT22;4998;51.024;13.828;2023-08-21T05:57:15;28.20;95.00
9919;DHT22;4998;51.024;13.828;2023-08-21T05:59:46;28.30;94.70
9919;DHT22;4998;51.024;13.828;2023-08-21T06:02:13;28.50;94.40
9919;DHT22;4998;51.024;13.828;2023-08-21T06:04:41;28.60;94.20
9919;DHT22;4998;51.024;13.828;2023-08-21T06:07:09;28.70;94.00
9919;DHT22;4998;51.024;13.828;2023-08-21T06:09:36;28.90;93.80
9919;DHT22;4998;51.024;13.828;2023-08-21T06:12:03;29.00;93.60
9919;DHT22;4998;51.024;13.828;2023-08-21T06:14:30;29.10;93.30
9919;DHT22;4998;51.024;13.828;2023-08-21T06:16:59;29.10;93.10
9919;DHT22;4998;51.024;13.828;2023-08-21T06:19:26;29.20;92.70
9919;DHT22;4998;51.024;13.828;2023-08-21T06:21:54;29.30;92.60
9919;DHT22;4998;51.024;13.828;2023-08-21T06:24:21;29.30;92.20
9919;DHT22;4998;51.024;13.828;2023-08-21T06:26:48;29.30;92.10
9919;DHT22;4998;51.024;13.828;2023-08-21T06:29:15;29.40;92.00
9919;DHT22;4998;51.024;13.828;2023-08-21T06:31:42;29.40;92.30
9919;DHT22;4998;51.024;13.828;2023-08-21T06:34:11;29.40;91.90
9919;DHT22;4998;51.024;13.828;2023-08-21T06:36:38;29.50;92.00
9919;DHT22;4998;51.024;13.828;2023-08-21T06:39:05;29.60;92.00
9919;DHT22;4998;51.024;13.828;2023-08-21T06:41:32;29.60;91.80
9919;DHT22;4998;51.024;13.828;2023-08-21T06:43:59;29.70;91.80
9919;DHT22;4998;51.024;13.828;2023-08-21T06:46:26;29.80;91.60
9919;DHT22;4998;51.024;13.828;2023-08-21T06:48:53;29.80;91.30
9919;DHT22;4998;51.024;13.828;2023-08-21T06:51:21;29.90;91.00
9919;DHT22;4998;51.024;13.828;2023-08-21T06:53:48;29.90;90.40
9919;DHT22;4998;51.024;13.828;2023-08-21T06:56:15;29.90;90.20
9919;DHT22;4998;51.024;13.828;2023-08-21T06:58:42;29.90;90.20
9919;DHT22;4998;51.024;13.828;2023-08-21T07:01:09;29.90;90.30
9919;DHT22;4998;51.024;13.828;2023-08-21T07:03:36;29.90;90.40
9919;DHT22;4998;51.024;13.828;2023-08-21T07:06:03;29.90;90.20
9919;DHT22;4998;51.024;13.828;2023-08-21T07:08:31;29.90;89.80
9919;DHT22;4998;51.024;13.828;2023-08-21T07:11:02;29.90;89.30
9919;DHT22;4998;51.024;13.828;2023-08-21T07:13:29;29.90;88.80
9919;DHT22;4998;51.024;13.828;2023-08-21T07:15:56;29.90;88.50
9919;DHT22;4998;51.024;13.828;2023-08-21T07:18:23;29.80;88.70
9919;DHT22;4998;51.024;13.828;2023-08-21T07:20:52;29.70;89.20
9919;DHT22;4998;51.024;13.828;2023-08-21T07:23:19;29.70;88.60
9919;DHT22;4998;51.024;13.828;2023-08-21T07:25:47;29.70;89.10
9919;DHT22;4998;51.024;13.828;2023-08-21T07:28:14;29.70;89.20
9919;DHT22;4998;51.024;13.828;2023-08-21T07:30:41;29.70;89.10
9919;DHT22;4998;51.024;13.828;2023-08-21T07:33:08;29.70;88.80
9919;DHT22;4998;51.024;13.828;2023-08-21T07:35:35;29.70;89.00
9919;DHT22;4998;51.024;13.828;2023-08-21T07:38:02;29.80;89.30
9919;DHT22;4998;51.024;13.828;2023-08-21T07:40:29;29.80;89.10
9919;DHT22;4998;51.024;13.828;2023-08-21T07:42:58;29.80;89.00
9919;DHT22;4998;51.024;13.828;2023-08-21T07:45:25;29.90;88.90
9919;DHT22;4998;51.024;13.828;2023-08-21T07:47:52;30.00;88.80
9919;DHT22;4998;51.024;13.828;2023-08-21T07:50:19;30.00;88.50
9919;DHT22;4998;51.024;13.828;2023-08-21T07:52:46;30.10;88.40
9919;DHT22;4998;51.024;13.828;2023-08-21T07:55:13;30.10;87.50
9919;DHT22;4998;51.024;13.828;2023-08-21T07:57:40;30.20;86.70
9919;DHT22;4998;51.024;13.828;2023-08-21T08:00:10;30.10;86.50
9919;DHT22;4998;51.024;13.828;2023-08-21T08:02:37;30.10;86.10
9919;DHT22;4998;51.024;13.828;2023-08-21T08:05:05;30.00;85.60
9919;DHT22;4998;51.024;13.828;2023-08-21T08:07:32;30.00;85.50
9919;DHT22;4998;51.024;13.828;2023-08-21T08:09:59;29.90;85.80
9919;DHT22;4998;51.024;13.828;2023-08-21T08:12:26;29.90;86.00
9919;DHT22;4998;51.024;13.828;2023-08-21T08:14:52;29.80;85.20
9919;DHT22;4998;51.024;13.828;2023-08-21T08:17:21;29.70;85.50
9919;DHT22;4998;51.024;13.828;2023-08-21T08:19:48;29.60;85.50
9919;DHT22;4998;51.024;13.828;2023-08-21T08:22:14;29.60;86.00
9919;DHT22;4998;51.024;13.828;2023-08-21T08:24:41;29.50;86.30
9919;DHT22;4998;51.024;13.828;2023-08-21T08:27:08;29.50;86.30
9919;DHT22;4998;51.024;13.828;2023-08-21T08:29:35;29.50;86.30
9919;DHT22;4998;51.024;13.828;2023-08-21T08:32:03;29.50;86.40
9919;DHT22;4998;51.024;13.828;2023-08-21T08:34:31;29.50;86.80
9919;DHT22;4998;51.024;13.828;2023-08-21T08:36:58;29.50;86.80
9919;DHT22;4998;51.024;13.828;2023-08-21T08:39:25;29.50;87.10
9919;DHT22;4998;51.024;13.828;2023-08-21T08:41:57;29.60;87.30
9919;DHT22;4998;51.024;13.828;2023-08-21T08:44:25;29.60;86.90
9919;DHT22;4998;51.024;13.828;2023-08-21T08:46:52;29.70;86.90
9919;DHT22;4998;51.024;13.828;2023-08-21T08:49:20;29.70;87.00
9919;DHT22;4998;51.024;13.828;2023-08-21T08:51:50;29.80;87.30
9919;DHT22;4998;51.024;13.828;2023-08-21T08:54:17;29.80;86.70
9919;DHT22;4998;51.024;13.828;2023-08-21T08:56:44;29.80;86.70
9919;DHT22;4998;51.024;13.828;2023-08-21T08:59:11;29.90;87.00
9919;DHT22;4998;51.024;13.828;2023-08-21T09:01:40;29.90;87.30
9919;DHT22;4998;51.024;13.828;2023-08-21T09:04:07;30.00;87.40
9919;DHT22;4998;51.024;13.828;2023-08-21T09:06:34;30.10;87.60
9919;DHT22;4998;51.024;13.828;2023-08-21T09:09:03;30.20;87.30
9919;DHT22;4998;51.024;13.828;2023-08-21T09:11:30;30.20;86.70
9919;DHT22;4998;51.024;13.828;2023-08-21T09:13:57;30.20;86.50
9919;DHT22;4998;51.024;13.828;2023-08-21T09:16:25;30.30;86.40
9919;DHT22;4998;51.024;13.828;2023-08-21T09:18:54;30.30;86.10
9919;DHT22;4998;51.024;13.828;2023-08-21T09:21:23;30.30;86.40
9919;DHT22;4998;51.024;13.828;2023-08-21T09:23:56;30.30;86.30
9919;DHT22;4998;51.024;13.828;2023-08-21T09:26:26;30.30;86.10
9919;DHT22;4998;51.024;13.828;2023-08-21T09:28:53;30.30;86.30
9919;DHT22;4998;51.024;13.828;2023-08-21T09:31:23;30.30;86.60
9919;DHT22;4998;51.024;13.828;2023-08-21T09:34:00;30.40;87.00
9919;DHT22;4998;51.024;13.828;2023-08-21T09:36:30;30.50;86.30
9919;DHT22;4998;51.024;13.828;2023-08-21T09:38:57;30.50;86.40
9919;DHT22;4998;51.024;13.828;2023-08-21T09:41:26;30.50;86.00
9919;DHT22;4998;51.024;13.828;2023-08-21T09:43:58;30.60;85.50
9919;DHT22;4998;51.024;13.828;2023-08-21T09:46:27;30.70;85.40
9919;DHT22;4998;51.024;13.828;2023-08-21T09:48:54;30.70;85.20
9919;DHT22;4998;51.024;13.828;2023-08-21T09:51:21;30.80;85.00
9919;DHT22;4998;51.024;13.828;2023-08-21T09:53:49;30.90;84.80
9919;DHT22;4998;51.024;13.828;2023-08-21T09:56:18;30.90;84.40
9919;DHT22;4998;51.024;13.828;2023-08-21T09:58:47;31.00;83.20
9919;DHT22;4998;51.024;13.828;2023-08-21T10:01:16;31.10;82.70
9919;DHT22;4998;51.024;13.828;2023-08-21T10:03:44;31.20;82.40
9919;DHT22;4998;51.024;13.828;2023-08-21T10:06:16;31.20;81.20
9919;DHT22;4998;51.024;13.828;2023-08-21T10:08:46;31.30;80.50
9919;DHT22;4998;51.024;13.828;2023-08-21T10:11:13;31.30;79.70
9919;DHT22;4998;51.024;13.828;2023-08-21T10:13:40;31.30;79.50
9919;DHT22;4998;51.024;13.828;2023-08-21T10:16:09;31.30;79.10
9919;DHT22;4998;51.024;13.828;2023-08-21T10:18:37;31.40;76.80
9919;DHT22;4998;51.024;13.828;2023-08-21T10:21:11;31.40;76.00
9919;DHT22;4998;51.024;13.828;2023-08-21T10:23:39;31.30;75.60
9919;DHT22;4998;51.024;13.828;2023-08-21T10:26:10;31.30;75.60
9919;DHT22;4998;51.024;13.828;2023-08-21T10:28:48;31.20;75.40
9919;DHT22;4998;51.024;13.828;2023-08-21T10:31:31;31.20;74.60
9919;DHT22;4998;51.024;13.828;2023-08-21T10:34:00;31.20;74.40
9919;DHT22;4998;51.024;13.828;2023-08-21T10:39:38;31.30;74.40
9919;DHT22;4998;51.024;13.828;2023-08-21T10:42:08;31.30;73.20
9919;DHT22;4998;51.024;13.828;2023-08-21T10:44:51;31.40;72.90
9919;DHT22;4998;51.024;13.828;2023-08-21T10:47:20;31.50;72.80
9919;DHT22;4998;51.024;13.828;2023-08-21T10:49:50;31.50;72.60
9919;DHT22;4998;51.024;13.828;2023-08-21T10:52:21;31.60;72.00
9919;DHT22;4998;51.024;13.828;2023-08-21T10:54:50;31.70;70.90
9919;DHT22;4998;51.024;13.828;2023-08-21T10:57:18;31.70;71.20
9919;DHT22;4998;51.024;13.828;2023-08-21T10:59:56;31.80;70.30
9919;DHT22;4998;51.024;13.828;2023-08-21T11:02:26;31.80;69.50
9919;DHT22;4998;51.024;13.828;2023-08-21T11:04:54;31.80;69.10
9919;DHT22;4998;51.024;13.828;2023-08-21T11:07:22;31.90;69.00
9919;DHT22;4998;51.024;13.828;2023-08-21T11:09:49;31.90;69.10
9919;DHT22;4998;51.024;13.828;2023-08-21T11:12:17;31.90;68.40
9919;DHT22;4998;51.024;13.828;2023-08-21T11:14:45;31.90;67.40
9919;DHT22;4998;51.024;13.828;2023-08-21T11:17:12;32.00;67.10
9919;DHT22;4998;51.024;13.828;2023-08-21T11:19:41;32.00;66.70
9919;DHT22;4998;51.024;13.828;2023-08-21T11:22:08;32.00;66.40
9919;DHT22;4998;51.024;13.828;2023-08-21T11:24:40;32.00;66.70
9919;DHT22;4998;51.024;13.828;2023-08-21T11:27:08;32.00;66.00
9919;DHT22;4998;51.024;13.828;2023-08-21T11:29:39;32.00;65.90
9919;DHT22;4998;51.024;13.828;2023-08-21T11:32:12;32.00;65.10
9919;DHT22;4998;51.024;13.828;2023-08-21T11:34:41;32.10;64.70
9919;DHT22;4998;51.024;13.828;2023-08-21T11:37:10;32.10;64.60
9919;DHT22;4998;51.024;13.828;2023-08-21T11:39:42;32.00;64.50
9919;DHT22;4998;51.024;13.828;2023-08-21T11:42:10;32.10;63.80
9919;DHT22;4998;51.024;13.828;2023-08-21T11:44:45;32.10;64.00
9919;DHT22;4998;51.024;13.828;2023-08-21T11:47:13;32.10;63.70
9919;DHT22;4998;51.024;13.828;2023-08-21T11:49:43;32.10;63.90
9919;DHT22;4998;51.024;13.828;2023-08-21T11:52:11;32.10;63.20
9919;DHT22;4998;51.024;13.828;2023-08-21T11:54:39;32.10;63.20
9919;DHT22;4998;51.024;13.828;2023-08-21T11:57:07;32.20;63.00
9919;DHT22;4998;51.024;13.828;2023-08-21T11:59:35;32.20;62.70
9919;DHT22;4998;51.024;13.828;2023-08-21T12:02:13;32.20;62.60
9919;DHT22;4998;51.024;13.828;2023-08-21T12:04:42;32.20;62.00
9919;DHT22;4998;51.024;13.828;2023-08-21T12:07:09;32.20;61.70
9919;DHT22;4998;51.024;13.828;2023-08-21T12:09:36;32.20;61.70
9919;DHT22;4998;51.024;13.828;2023-08-21T12:12:04;32.20;61.60
9919;DHT22;4998;51.024;13.828;2023-08-21T12:14:31;32.10;61.60
9919;DHT22;4998;51.024;13.828;2023-08-21T12:16:58;32.10;61.70
9919;DHT22;4998;51.024;13.828;2023-08-21T12:19:25;32.10;61.80
9919;DHT22;4998;51.024;13.828;2023-08-21T12:21:54;32.20;61.50
9919;DHT22;4998;51.024;13.828;2023-08-21T12:24:21;32.20;61.10
9919;DHT22;4998;51.024;13.828;2023-08-21T12:26:48;32.20;60.80
9919;DHT22;4998;51.024;13.828;2023-08-21T12:29:14;32.20;60.70
9919;DHT22;4998;51.024;13.828;2023-08-21T12:31:41;32.30;60.70
9919;DHT22;4998;51.024;13.828;2023-08-21T12:34:08;32.30;59.90
9919;DHT22;4998;51.024;13.828;2023-08-21T12:36:35;32.30;60.00
9919;DHT22;4998;51.024;13.828;2023-08-21T12:39:04;32.30;59.90
9919;DHT22;4998;51.024;13.828;2023-08-21T12:41:32;32.30;59.60
9919;DHT22;4998;51.024;13.828;2023-08-21T12:43:59;32.30;59.60
9919;DHT22;4998;51.024;13.828;2023-08-21T12:46:26;32.30;60.00
9919;DHT22;4998;51.024;13.828;2023-08-21T12:48:54;32.40;59.80
9919;DHT22;4998;51.024;13.828;2023-08-21T12:51:21;32.40;59.50
9919;DHT22;4998;51.024;13.828;2023-08-21T12:53:49;32.50;59.10
9919;DHT22;4998;51.024;13.828;2023-08-21T12:56:17;32.50;58.90
9919;DHT22;4998;51.024;13.828;2023-08-21T12:58:45;32.50;58.70
9919;DHT22;4998;51.024;13.828;2023-08-21T13:01:12;32.60;58.80
9919;DHT22;4998;51.024;13.828;2023-08-21T13:03:38;32.70;58.90
9919;DHT22;4998;51.024;13.828;2023-08-21T13:06:05;32.70;59.00
9919;DHT22;4998;51.024;13.828;2023-08-21T13:08:32;32.70;59.00
9919;DHT22;4998;51.024;13.828;2023-08-21T13:10:59;32.80;59.20
9919;DHT22;4998;51.024;13.828;2023-08-21T13:13:27;32.80;59.00
9919;DHT22;4998;51.024;13.828;2023-08-21T13:15:54;32.90;59.00
9919;DHT22;4998;51.024;13.828;2023-08-21T13:18:21;33.00;58.60
9919;DHT22;4998;51.024;13.828;2023-08-21T13:20:48;33.00;58.20
9919;DHT22;4998;51.024;13.828;2023-08-21T13:23:15;33.10;58.20
9919;DHT22;4998;51.024;13.828;2023-08-21T13:25:42;33.10;58.10
9919;DHT22;4998;51.024;13.828;2023-08-21T13:28:09;33.20;58.00
9919;DHT22;4998;51.024;13.828;2023-08-21T13:30:37;33.20;57.80
9919;DHT22;4998;51.024;13.828;2023-08-21T13:33:04;33.30;57.60
9919;DHT22;4998;51.024;13.828;2023-08-21T13:35:32;33.20;57.40
9919;DHT22;4998;51.024;13.828;2023-08-21T13:37:59;33.30;57.30
9919;DHT22;4998;51.024;13.828;2023-08-21T13:40:26;33.30;56.90
9919;DHT22;4998;51.024;13.828;2023-08-21T13:42:53;33.30;56.50
9919;DHT22;4998;51.024;13.828;2023-08-21T13:45:20;33.30;56.60
9919;DHT22;4998;51.024;13.828;2023-08-21T13:47:49;33.30;56.10
9919;DHT22;4998;51.024;13.828;2023-08-21T13:50:17;33.30;55.80
9919;DHT22;4998;51.024;13.828;2023-08-21T13:52:46;33.30;55.80
9919;DHT22;4998;51.024;13.828;2023-08-21T13:55:13;33.30;55.30
9919;DHT22;4998;51.024;13.828;2023-08-21T13:57:40;33.30;55.20
9919;DHT22;4998;51.024;13.828;2023-08-21T14:00:09;33.30;54.80
9919;DHT22;4998;51.024;13.828;2023-08-21T14:02:38;33.20;54.70
9919;DHT22;4998;51.024;13.828;2023-08-21T14:05:07;33.20;54.70
9919;DHT22;4998;51.024;13.828;2023-08-21T14:07:36;33.10;54.90
9919;DHT22;4998;51.024;13.828;2023-08-21T14:10:03;33.10;55.80
9919;DHT22;4998;51.024;13.828;2023-08-21T14:12:32;33.10;55.20
9919;DHT22;4998;51.024;13.828;2023-08-21T14:14:59;33.20;55.40
9919;DHT22;4998;51.024;13.828;2023-08-21T14:17:26;33.30;55.30
9919;DHT22;4998;51.024;13.828;2023-08-21T14:19:53;33.30;55.30
9919;DHT22;4998;51.024;13.828;2023-08-21T14:22:22;33.40;54.90
9919;DHT22;4998;51.024;13.828;2023-08-21T14:24:49;33.40;54.40
9919;DHT22;4998;51.024;13.828;2023-08-21T14:27:16;33.50;54.20
9919;DHT22;4998;51.024;13.828;2023-08-21T14:29:43;33.50;54.10
9919;DHT22;4998;51.024;13.828;2023-08-21T14:32:10;33.50;54.00
9919;DHT22;4998;51.024;13.828;2023-08-21T14:34:37;33.50;53.60
9919;DHT22;4998;51.024;13.828;2023-08-21T14:37:04;33.50;53.60
9919;DHT22;4998;51.024;13.828;2023-08-21T14:39:32;33.50;53.50
9919;DHT22;4998;51.024;13.828;2023-08-21T14:41:59;33.40;53.70
9919;DHT22;4998;51.024;13.828;2023-08-21T14:44:27;33.40;53.80
9919;DHT22;4998;51.024;13.828;2023-08-21T14:46:55;33.40;53.70
9919;DHT22;4998;51.024;13.828;2023-08-21T14:49:23;33.30;53.60
9919;DHT22;4998;51.024;13.828;2023-08-21T14:51:50;33.30;53.70
9919;DHT22;4998;51.024;13.828;2023-08-21T14:54:17;33.30;53.60
9919;DHT22;4998;51.024;13.828;2023-08-21T14:56:46;33.20;53.30
9919;DHT22;4998;51.024;13.828;2023-08-21T14:59:13;33.20;53.20
9919;DHT22;4998;51.024;13.828;2023-08-21T15:01:40;33.20;53.40
9919;DHT22;4998;51.024;13.828;2023-08-21T15:04:08;33.20;53.60
9919;DHT22;4998;51.024;13.828;2023-08-21T15:06:36;33.10;53.50
9919;DHT22;4998;51.024;13.828;2023-08-21T15:09:05;33.10;53.50
9919;DHT22;4998;51.024;13.828;2023-08-21T15:11:32;33.10;53.50
9919;DHT22;4998;51.024;13.828;2023-08-21T15:14:03;33.10;53.40
9919;DHT22;4998;51.024;13.828;2023-08-21T15:16:35;33.10;53.30
9919;DHT22;4998;51.024;13.828;2023-08-21T15:19:02;33.10;53.30
9919;DHT22;4998;51.024;13.828;2023-08-21T15:21:29;33.10;53.20
9919;DHT22;4998;51.024;13.828;2023-08-21T15:23:56;33.10;53.40
9919;DHT22;4998;51.024;13.828;2023-08-21T15:26:23;33.10;53.00
9919;DHT22;4998;51.024;13.828;2023-08-21T15:28:50;33.10;53.10
9919;DHT22;4998;51.024;13.828;2023-08-21T15:31:19;33.10;53.00
9919;DHT22;4998;51.024;13.828;2023-08-21T15:33:46;33.10;52.50
9919;DHT22;4998;51.024;13.828;2023-08-21T15:36:13;33.10;52.50
9919;DHT22;4998;51.024;13.828;2023-08-21T15:38:40;33.20;52.50
9919;DHT22;4998;51.024;13.828;2023-08-21T15:41:06;33.10;52.50
9919;DHT22;4998;51.024;13.828;2023-08-21T15:43:34;33.10;52.40
9919;DHT22;4998;51.024;13.828;2023-08-21T15:46:03;33.10;52.50
9919;DHT22;4998;51.024;13.828;2023-08-21T15:48:32;33.10;52.50
9919;DHT22;4998;51.024;13.828;2023-08-21T15:50:59;33.00;52.40